Time,TemperatureF,DewpointF,PressureIn,WindDirection,WindDirectionDegrees,WindSpeedMPH,WindSpeedGustMPH,Humidity,HourlyPrecipIn,Conditions,Clouds,dailyrainin,SoftwareType,DateUTC
2013-05-22 08:26:00,64.7,63.2,29.96,WNW,292,1.0,2.0,95,0.00,,,0.00,Wunderground v.1.15,2013-05-22 12:26:00,
2013-05-22 08:28:00,64.7,63.2,29.96,West,278,1.0,2.0,95,0.00,,,0.00,Wunderground v.1.15,2013-05-22 12:28:00,
2013-05-22 08:34:00,65.0,63.5,29.95,NW,306,2.0,2.0,95,0.00,,,0.00,Wunderground v.1.15,2013-05-22 12:34:00,
2013-05-22 08:40:00,65.0,63.5,29.95,NNW,334,2.0,3.0,95,0.00,,,0.00,Wunderground v.1.15,2013-05-22 12:40:00,
2013-05-22 08:44:00,65.4,63.9,29.95,West,281,2.0,3.0,95,0.00,,,0.00,Wunderground v.1.15,2013-05-22 12:44:00,
2013-05-22 08:50:00,66.0,64.5,29.95,NW,324,2.0,3.0,95,0.00,,,0.00,Wunderground v.1.15,2013-05-22 12:50:00,
2013-05-22 08:56:00,66.4,64.6,29.95,NNW,333,2.0,2.0,94,0.00,,,0.00,Wunderground v.1.15,2013-05-22 12:56:00,
2013-05-22 09:02:00,66.7,64.6,29.96,NNW,339,2.0,3.0,93,0.00,,,0.00,Wunderground v.1.15,2013-05-22 13:02:00,
2013-05-22 09:08:00,67.1,64.7,29.96,NNW,334,2.0,3.0,92,0.00,,,0.00,Wunderground v.1.15,2013-05-22 13:08:00,
2013-05-22 09:14:00,67.2,64.5,29.96,NW,320,2.0,3.0,91,0.00,,,0.00,Wunderground v.1.15,2013-05-22 13:14:00,
2013-05-22 09:20:00,67.6,64.9,29.96,NNW,333,1.0,3.0,91,0.00,,,0.00,Wunderground v.1.15,2013-05-22 13:20:00,
2013-05-22 09:26:00,67.7,64.7,29.97,SW,228,1.0,3.0,90,0.00,,,0.00,Wunderground v.1.15,2013-05-22 13:26:00,
2013-05-22 09:32:00,68.1,65.1,29.96,NNW,335,1.0,3.0,90,0.00,,,0.00,Wunderground v.1.15,2013-05-22 13:32:00,
2013-05-22 09:38:00,68.8,65.7,29.96,NNE,12,1.0,3.0,90,0.00,,,0.00,Wunderground v.1.15,2013-05-22 13:38:00,
2013-05-22 09:44:00,69.0,65.3,29.96,North,9,1.0,3.0,88,0.00,,,0.00,Wunderground v.1.15,2013-05-22 13:44:00,
2013-05-22 09:50:00,70.0,66.0,29.96,NNE,28,1.0,3.0,87,0.00,,,0.00,Wunderground v.1.15,2013-05-22 13:50:00,
2013-05-22 09:56:00,69.9,65.5,29.96,NE,37,2.0,4.0,86,0.00,,,0.00,Wunderground v.1.15,2013-05-22 13:56:00,
2013-05-22 10:02:00,70.0,66.0,29.96,NNE,13,2.0,3.0,87,0.00,,,0.00,Wunderground v.1.15,2013-05-22 14:02:00,
2013-05-22 10:08:00,70.0,66.0,29.96,NNE,19,3.0,3.0,87,0.00,,,0.00,Wunderground v.1.15,2013-05-22 14:08:00,
2013-05-22 10:14:00,69.8,65.4,29.96,NNE,27,3.0,4.0,86,0.00,,,0.00,Wunderground v.1.15,2013-05-22 14:14:00,
2013-05-22 10:20:00,69.6,65.9,29.96,NNE,21,3.0,4.0,88,0.00,,,0.00,Wunderground v.1.15,2013-05-22 14:20:00,
2013-05-22 10:26:00,69.9,66.2,29.96,NNE,22,3.0,4.0,88,0.00,,,0.00,Wunderground v.1.15,2013-05-22 14:26:00,
2013-05-22 10:32:00,69.8,65.4,29.95,NNE,20,3.0,3.0,86,0.00,,,0.00,Wunderground v.1.15,2013-05-22 14:32:00,
2013-05-22 10:38:00,69.9,66.2,29.95,NNE,18,3.0,4.0,88,0.00,,,0.00,Wunderground v.1.15,2013-05-22 14:38:00,
2013-05-22 10:44:00,70.3,65.9,29.95,NE,42,3.0,4.0,86,0.00,,,0.00,Wunderground v.1.15,2013-05-22 14:44:00,
2013-05-22 10:50:00,71.0,65.9,29.95,NE,34,2.0,3.0,84,0.00,,,0.00,Wunderground v.1.15,2013-05-22 14:50:00,
2013-05-22 10:56:00,71.3,65.9,29.95,NNW,344,3.0,3.0,83,0.00,,,0.00,Wunderground v.1.15,2013-05-22 14:56:00,
2013-05-22 11:02:00,71.8,65.3,29.95,NNE,23,2.0,3.0,80,0.00,,,0.00,Wunderground v.1.15,2013-05-22 15:02:00,
2013-05-22 11:08:00,72.2,65.7,29.95,NNE,18,2.0,3.0,80,0.00,,,0.00,Wunderground v.1.15,2013-05-22 15:08:00,
2013-05-22 11:14:00,72.5,66.3,29.95,North,6,2.0,3.0,81,0.00,,,0.00,Wunderground v.1.15,2013-05-22 15:14:00,
2013-05-22 11:20:00,72.9,65.3,29.95,NNE,18,3.0,3.0,77,0.00,,,0.00,Wunderground v.1.15,2013-05-22 15:20:00,
2013-05-22 11:26:00,73.4,66.1,29.94,NNE,20,3.0,3.0,78,0.00,,,0.00,Wunderground v.1.15,2013-05-22 15:26:00,
2013-05-22 11:32:00,73.9,65.1,29.95,North,352,2.0,3.0,74,0.00,,,0.00,Wunderground v.1.15,2013-05-22 15:32:00,
2013-05-22 11:38:00,74.4,66.0,29.95,North,10,2.0,3.0,75,0.00,,,0.00,Wunderground v.1.15,2013-05-22 15:38:00,
2013-05-22 11:44:00,74.8,66.7,29.94,NE,40,2.0,3.0,76,0.00,,,0.00,Wunderground v.1.15,2013-05-22 15:44:00,
2013-05-22 11:50:00,75.0,66.1,29.94,NNE,23,3.0,4.0,74,0.00,,,0.00,Wunderground v.1.15,2013-05-22 15:50:00,
2013-05-22 11:56:00,74.9,66.8,29.94,North,3,4.0,4.0,76,0.00,,,0.00,Wunderground v.1.15,2013-05-22 15:56:00,
2013-05-22 12:02:00,74.8,66.3,29.94,NNE,14,3.0,4.0,75,0.00,,,0.00,Wunderground v.1.15,2013-05-22 16:02:00,
2013-05-22 12:08:00,74.9,66.8,29.94,NNE,23,3.0,4.0,76,0.00,,,0.00,Wunderground v.1.15,2013-05-22 16:08:00,
2013-05-22 12:14:00,75.6,67.9,29.94,NNE,18,3.0,3.0,77,0.00,,,0.00,Wunderground v.1.15,2013-05-22 16:14:00,
2013-05-22 12:20:00,77.2,68.7,29.94,NE,51,2.0,4.0,75,0.00,,,0.00,Wunderground v.1.15,2013-05-22 16:20:00,
2013-05-22 12:26:00,77.1,69.3,29.93,SE,132,4.0,6.0,77,0.00,,,0.00,Wunderground v.1.15,2013-05-22 16:26:00,
2013-05-22 12:32:00,78.3,70.1,29.93,ENE,68,3.0,5.0,76,0.00,,,0.00,Wunderground v.1.15,2013-05-22 16:32:00,
2013-05-22 12:38:00,78.6,69.2,29.93,ESE,120,3.0,8.0,73,0.00,,,0.00,Wunderground v.1.15,2013-05-22 16:38:00,
2013-05-22 12:44:00,78.5,68.3,29.93,ENE,63,6.0,7.0,71,0.00,,,0.00,Wunderground v.1.15,2013-05-22 16:44:00,
2013-05-22 12:50:00,78.5,69.1,29.92,ENE,76,6.0,6.0,73,0.00,,,0.00,Wunderground v.1.15,2013-05-22 16:50:00,
2013-05-22 12:56:00,79.8,68.7,29.92,SSE,157,5.0,7.0,69,0.00,,,0.00,Wunderground v.1.15,2013-05-22 16:56:00,
2013-05-22 13:02:00,80.7,69.2,29.92,SSE,165,7.0,11.0,68,0.00,,,0.00,Wunderground v.1.15,2013-05-22 17:02:00,
2013-05-22 13:08:00,80.9,68.0,29.92,SSE,155,8.0,11.0,65,0.00,,,0.00,Wunderground v.1.15,2013-05-22 17:08:00,
2013-05-22 13:14:00,81.4,68.9,29.92,SSE,155,7.0,8.0,66,0.00,,,0.00,Wunderground v.1.15,2013-05-22 17:14:00,
2013-05-22 13:20:00,81.4,67.6,29.92,SSE,160,7.0,7.0,63,0.00,,,0.00,Wunderground v.1.15,2013-05-22 17:20:00,
2013-05-22 13:26:00,81.5,68.1,29.91,South,172,8.0,13.0,64,0.00,,,0.00,Wunderground v.1.15,2013-05-22 17:26:00,
2013-05-22 13:32:00,82.0,68.6,29.91,South,177,7.0,10.0,64,0.00,,,0.00,Wunderground v.1.15,2013-05-22 17:32:00,
2013-05-22 13:38:00,81.7,68.8,29.91,South,190,8.0,10.0,65,0.00,,,0.00,Wunderground v.1.15,2013-05-22 17:38:00,
2013-05-22 13:44:00,81.7,69.2,29.90,SSW,212,6.0,8.0,66,0.00,,,0.00,Wunderground v.1.15,2013-05-22 17:44:00,
2013-05-22 13:50:00,81.0,68.1,29.90,SSE,166,6.0,6.0,65,0.00,,,0.00,Wunderground v.1.15,2013-05-22 17:50:00,
2013-05-22 13:56:00,81.2,68.3,29.89,South,190,5.0,6.0,65,0.00,,,0.00,Wunderground v.1.15,2013-05-22 17:56:00,
2013-05-22 14:02:00,81.6,68.2,29.89,South,190,4.0,4.0,64,0.00,,,0.00,Wunderground v.1.15,2013-05-22 18:02:00,
2013-05-22 14:08:00,82.2,68.8,29.89,SSE,159,4.0,5.0,64,0.00,,,0.00,Wunderground v.1.15,2013-05-22 18:08:00,
2013-05-22 14:14:00,82.2,67.4,29.89,South,185,5.0,6.0,61,0.00,,,0.00,Wunderground v.1.15,2013-05-22 18:14:00,
2013-05-22 14:20:00,82.3,68.4,29.88,SSW,202,7.0,10.0,63,0.00,,,0.00,Wunderground v.1.15,2013-05-22 18:20:00,
2013-05-22 14:26:00,82.6,67.8,29.88,South,191,9.0,10.0,61,0.00,,,0.00,Wunderground v.1.15,2013-05-22 18:26:00,
2013-05-22 14:32:00,83.2,69.3,29.88,SSW,193,7.0,8.0,63,0.00,,,0.00,Wunderground v.1.15,2013-05-22 18:32:00,
2013-05-22 14:38:00,83.6,67.3,29.87,SSW,194,7.0,9.0,58,0.00,,,0.00,Wunderground v.1.15,2013-05-22 18:38:00,
2013-05-22 14:44:00,83.0,66.2,29.87,SSW,203,9.0,15.0,57,0.00,,,0.00,Wunderground v.1.15,2013-05-22 18:44:00,
2013-05-22 14:50:00,82.3,66.5,29.87,South,186,8.0,8.0,59,0.00,,,0.00,Wunderground v.1.15,2013-05-22 18:50:00,
2013-05-22 14:56:00,82.6,67.8,29.87,South,190,6.0,10.0,61,0.00,,,0.00,Wunderground v.1.15,2013-05-22 18:56:00,
2013-05-22 15:02:00,82.7,68.4,29.87,SW,236,7.0,7.0,62,0.00,,,0.00,Wunderground v.1.15,2013-05-22 19:02:00,
2013-05-22 15:08:00,82.8,68.4,29.86,SW,219,6.0,7.0,62,0.00,,,0.00,Wunderground v.1.15,2013-05-22 19:08:00,
2013-05-22 15:14:00,83.1,66.3,29.85,South,191,6.0,9.0,57,0.00,,,0.00,Wunderground v.1.15,2013-05-22 19:14:00,
2013-05-22 15:20:00,82.9,67.1,29.85,South,183,6.0,7.0,59,0.00,,,0.00,Wunderground v.1.15,2013-05-22 19:20:00,
2013-05-22 15:26:00,79.1,63.5,29.88,South,191,11.0,25.0,59,0.00,,,0.01,Wunderground v.1.15,2013-05-22 19:26:00,
2013-05-22 15:32:00,71.4,63.4,29.88,SSE,165,14.0,14.0,76,0.18,,,0.06,Wunderground v.1.15,2013-05-22 19:32:00,
2013-05-22 15:38:00,69.7,64.0,29.88,NE,56,4.0,14.0,82,0.17,,,0.08,Wunderground v.1.15,2013-05-22 19:38:00,
2013-05-22 15:44:00,68.8,63.8,29.87,ESE,103,3.0,6.0,84,0.07,,,0.08,Wunderground v.1.15,2013-05-22 19:44:00,
2013-05-22 15:50:00,68.8,64.8,29.87,NNE,20,3.0,4.0,87,0.04,,,0.08,Wunderground v.1.15,2013-05-22 19:50:00,
2013-05-22 15:56:00,68.8,63.4,29.85,NNE,15,4.0,7.0,83,0.00,,,0.08,Wunderground v.1.15,2013-05-22 19:56:00,
2013-05-22 16:02:00,69.0,64.0,29.86,NNW,345,5.0,5.0,84,0.00,,,0.08,Wunderground v.1.15,2013-05-22 20:02:00,
2013-05-22 16:08:00,69.7,64.3,29.85,North,355,3.0,5.0,83,0.00,,,0.08,Wunderground v.1.15,2013-05-22 20:08:00,
2013-05-22 16:14:00,70.2,64.4,29.86,NNE,31,2.0,3.0,82,0.00,,,0.08,Wunderground v.1.15,2013-05-22 20:14:00,
2013-05-22 16:20:00,70.6,63.4,29.86,NNE,20,3.0,5.0,78,0.00,,,0.08,Wunderground v.1.15,2013-05-22 20:20:00,
2013-05-22 16:26:00,71.0,63.4,29.86,North,5,4.0,5.0,77,0.00,,,0.08,Wunderground v.1.15,2013-05-22 20:26:00,
2013-05-22 16:32:00,71.2,64.0,29.85,North,10,3.0,3.0,78,0.00,,,0.08,Wunderground v.1.15,2013-05-22 20:32:00,
2013-05-22 16:38:00,71.6,64.0,29.84,NNW,339,1.0,3.0,77,0.00,,,0.08,Wunderground v.1.15,2013-05-22 20:38:00,
2013-05-22 16:44:00,71.8,64.2,29.85,North,356,0.0,3.0,77,0.00,,,0.08,Wunderground v.1.15,2013-05-22 20:44:00,
2013-05-22 16:50:00,72.1,64.5,29.85,NNE,18,1.0,3.0,77,0.00,,,0.08,Wunderground v.1.15,2013-05-22 20:50:00,
2013-05-22 16:56:00,72.5,64.5,29.85,NNE,13,2.0,4.0,76,0.00,,,0.08,Wunderground v.1.15,2013-05-22 20:56:00,
2013-05-22 17:02:00,72.6,65.0,29.85,North,9,5.0,10.0,77,0.00,,,0.08,Wunderground v.1.15,2013-05-22 21:02:00,
2013-05-22 17:08:00,72.0,65.1,29.86,North,354,7.0,10.0,79,0.00,,,0.08,Wunderground v.1.15,2013-05-22 21:08:00,
2013-05-22 17:14:00,72.0,64.0,29.86,NW,319,6.0,7.0,76,0.00,,,0.08,Wunderground v.1.15,2013-05-22 21:14:00,
2013-05-22 17:20:00,72.3,64.7,29.85,NW,320,5.0,5.0,77,0.00,,,0.08,Wunderground v.1.15,2013-05-22 21:20:00,
2013-05-22 17:26:00,72.9,64.5,29.85,NNW,332,4.0,5.0,75,0.00,,,0.08,Wunderground v.1.15,2013-05-22 21:26:00,
2013-05-22 17:32:00,73.7,65.7,29.85,NNW,332,3.0,4.0,76,0.00,,,0.08,Wunderground v.1.15,2013-05-22 21:32:00,
2013-05-22 17:38:00,74.7,66.2,29.85,North,6,2.0,4.0,75,0.00,,,0.08,Wunderground v.1.15,2013-05-22 21:38:00,
2013-05-22 17:44:00,74.5,66.1,29.85,North,350,4.0,7.0,75,0.00,,,0.08,Wunderground v.1.15,2013-05-22 21:44:00,
2013-05-22 17:50:00,74.2,66.5,29.85,NNW,333,6.0,6.0,77,0.00,,,0.08,Wunderground v.1.15,2013-05-22 21:50:00,
2013-05-22 17:56:00,74.5,67.2,29.84,NW,326,5.0,6.0,78,0.00,,,0.08,Wunderground v.1.15,2013-05-22 21:56:00,
2013-05-22 18:02:00,75.1,67.8,29.84,NNW,332,4.0,4.0,78,0.00,,,0.08,Wunderground v.1.15,2013-05-22 22:02:00,
2013-05-22 18:08:00,74.8,67.8,29.84,NNW,335,4.0,6.0,79,0.00,,,0.08,Wunderground v.1.15,2013-05-22 22:08:00,
2013-05-22 18:14:00,74.4,67.5,29.84,NNW,327,5.0,6.0,79,0.00,,,0.08,Wunderground v.1.15,2013-05-22 22:14:00,
2013-05-22 18:20:00,74.6,68.0,29.85,NNW,339,5.0,5.0,80,0.00,,,0.08,Wunderground v.1.15,2013-05-22 22:20:00,
2013-05-22 18:26:00,74.6,68.0,29.85,North,360,5.0,7.0,80,0.00,,,0.08,Wunderground v.1.15,2013-05-22 22:26:00,
2013-05-22 18:32:00,74.1,66.8,29.84,NW,325,6.0,7.0,78,0.00,,,0.08,Wunderground v.1.15,2013-05-22 22:32:00,
2013-05-22 18:38:00,73.7,66.8,29.85,NNW,339,6.0,7.0,79,0.00,,,0.08,Wunderground v.1.15,2013-05-22 22:38:00,
2013-05-22 18:44:00,73.5,66.6,29.85,NNW,344,5.0,6.0,79,0.00,,,0.08,Wunderground v.1.15,2013-05-22 22:44:00,
2013-05-22 18:50:00,73.3,66.8,29.85,NNW,342,4.0,4.0,80,0.00,,,0.08,Wunderground v.1.15,2013-05-22 22:50:00,
2013-05-22 18:56:00,73.2,66.7,29.86,NNE,13,4.0,11.0,80,0.00,,,0.08,Wunderground v.1.15,2013-05-22 22:56:00,
2013-05-22 19:02:00,72.6,66.4,29.85,North,6,9.0,11.0,81,0.00,,,0.08,Wunderground v.1.15,2013-05-22 23:02:00,
2013-05-22 19:08:00,72.7,64.3,29.85,NW,307,11.0,13.0,75,0.00,,,0.08,Wunderground v.1.15,2013-05-22 23:08:00,
2013-05-22 19:14:00,72.6,65.7,29.88,SE,136,7.0,10.0,79,4.61,,,0.15,Wunderground v.1.15,2013-05-22 23:14:00,
2013-05-22 19:20:00,70.8,65.0,29.89,SSE,159,10.0,10.0,82,5.88,,,0.43,Wunderground v.1.15,2013-05-22 23:20:00,
2013-05-22 19:26:00,69.1,64.7,29.88,NNE,30,8.0,10.0,86,0.67,,,0.68,Wunderground v.1.15,2013-05-22 23:26:00,
2013-05-22 19:32:00,68.2,64.2,29.87,NNW,331,3.0,4.0,87,0.10,,,0.68,Wunderground v.1.15,2013-05-22 23:32:00,
2013-05-22 19:38:00,67.8,64.1,29.88,North,1,2.0,7.0,88,0.05,,,0.68,Wunderground v.1.15,2013-05-22 23:38:00,
2013-05-22 19:44:00,68.0,64.3,29.88,NE,39,6.0,9.0,88,0.00,,,0.68,Wunderground v.1.15,2013-05-22 23:44:00,
2013-05-22 19:50:00,67.6,63.6,29.89,NE,43,9.0,9.0,87,0.00,,,0.68,Wunderground v.1.15,2013-05-22 23:50:00,
2013-05-22 19:56:00,67.5,63.5,29.89,NNE,20,7.0,9.0,87,0.00,,,0.68,Wunderground v.1.15,2013-05-22 23:56:00,
2013-05-22 20:04:00,67.6,63.3,29.90,NE,52,5.0,6.0,86,0.00,,,0.68,Wunderground v.1.15,2013-05-23 00:04:00,
2013-05-22 20:10:00,67.5,63.5,29.90,ENE,64,4.0,4.0,87,0.00,,,0.68,Wunderground v.1.15,2013-05-23 00:10:00,
2013-05-22 20:16:00,67.4,63.4,29.90,NE,37,4.0,9.0,87,0.00,,,0.68,Wunderground v.1.15,2013-05-23 00:16:00,
2013-05-22 20:22:00,67.1,63.4,29.90,NE,46,4.0,6.0,88,0.00,,,0.68,Wunderground v.1.15,2013-05-23 00:22:00,
2013-05-22 20:28:00,66.8,63.5,29.90,ENE,78,4.0,6.0,89,0.00,,,0.68,Wunderground v.1.15,2013-05-23 00:28:00,
2013-05-22 20:34:00,66.5,63.2,29.90,ENE,72,3.0,4.0,89,0.00,,,0.68,Wunderground v.1.15,2013-05-23 00:34:00,